sensor_id;sensor_type;location;lat;lon;timestamp;P1;durP1;ratioP1;P2;durP2;ratioP2
54875;SDS011;40764;48.472;8.166;2023-08-17T00:03:25;14.32;;;7.55;;
54875;SDS011;40764;48.472;8.166;2023-08-17T00:09:25;17.88;;;8.00;;
54875;SDS011;40764;48.472;8.166;2023-08-17T00:15:26;15.17;;;7.90;;
54875;SDS011;40764;48.472;8.166;2023-08-17T00:21:26;12.15;;;8.55;;
54875;SDS011;40764;48.472;8.166;2023-08-17T00:27:26;14.55;;;8.25;;
54875;SDS011;40764;48.472;8.166;2023-08-17T00:33:27;17.17;;;9.03;;
54875;SDS011;40764;48.472;8.166;2023-08-17T00:39:28;15.87;;;8.67;;
54875;SDS011;40764;48.472;8.166;2023-08-17T00:45:28;13.82;;;7.07;;
54875;SDS011;40764;48.472;8.166;2023-08-17T00:51:29;15.77;;;8.63;;
54875;SDS011;40764;48.472;8.166;2023-08-17T00:57:29;15.63;;;8.87;;
54875;SDS011;40764;48.472;8.166;2023-08-17T01:03:30;12.53;;;8.00;;
54875;SDS011;40764;48.472;8.166;2023-08-17T01:09:32;16.50;;;7.57;;
54875;SDS011;40764;48.472;8.166;2023-08-17T01:15:36;14.63;;;8.20;;
54875;SDS011;40764;48.472;8.166;2023-08-17T01:21:44;12.57;;;8.20;;
54875;SDS011;40764;48.472;8.166;2023-08-17T01:27:51;12.02;;;8.10;;
54875;SDS011;40764;48.472;8.166;2023-08-17T01:33:53;13.75;;;8.32;;
54875;SDS011;40764;48.472;8.166;2023-08-17T01:39:56;11.95;;;9.02;;
54875;SDS011;40764;48.472;8.166;2023-08-17T01:45:59;18.92;;;8.50;;
54875;SDS011;40764;48.472;8.166;2023-08-17T01:52:00;13.77;;;8.05;;
54875;SDS011;40764;48.472;8.166;2023-08-17T01:58:01;13.80;;;7.40;;
54875;SDS011;40764;48.472;8.166;2023-08-17T02:04:01;15.27;;;7.77;;
54875;SDS011;40764;48.472;8.166;2023-08-17T02:10:03;14.02;;;8.23;;
54875;SDS011;40764;48.472;8.166;2023-08-17T02:16:04;11.10;;;7.47;;
54875;SDS011;40764;48.472;8.166;2023-08-17T02:22:05;12.57;;;8.17;;
54875;SDS011;40764;48.472;8.166;2023-08-17T02:28:05;14.88;;;7.85;;
54875;SDS011;40764;48.472;8.166;2023-08-17T02:34:06;11.73;;;8.13;;
54875;SDS011;40764;48.472;8.166;2023-08-17T02:40:06;15.75;;;8.73;;
54875;SDS011;40764;48.472;8.166;2023-08-17T02:46:07;14.30;;;8.57;;
54875;SDS011;40764;48.472;8.166;2023-08-17T02:52:07;15.90;;;8.18;;
54875;SDS011;40764;48.472;8.166;2023-08-17T02:58:07;15.47;;;8.27;;
54875;SDS011;40764;48.472;8.166;2023-08-17T03:04:09;23.60;;;9.02;;
54875;SDS011;40764;48.472;8.166;2023-08-17T03:10:09;15.17;;;9.00;;
54875;SDS011;40764;48.472;8.166;2023-08-17T03:16:09;14.93;;;7.93;;
54875;SDS011;40764;48.472;8.166;2023-08-17T03:22:10;14.82;;;9.23;;
54875;SDS011;40764;48.472;8.166;2023-08-17T03:28:10;14.13;;;8.52;;
54875;SDS011;40764;48.472;8.166;2023-08-17T03:34:10;19.73;;;8.98;;
54875;SDS011;40764;48.472;8.166;2023-08-17T03:40:11;22.35;;;9.02;;
54875;SDS011;40764;48.472;8.166;2023-08-17T03:46:11;19.90;;;8.67;;
54875;SDS011;40764;48.472;8.166;2023-08-17T03:52:12;18.25;;;9.27;;
54875;SDS011;40764;48.472;8.166;2023-08-17T03:58:12;12.52;;;8.65;;
54875;SDS011;40764;48.472;8.166;2023-08-17T04:04:12;17.58;;;7.63;;
54875;SDS011;40764;48.472;8.166;2023-08-17T04:10:13;17.63;;;7.45;;
54875;SDS011;40764;48.472;8.166;2023-08-17T04:16:13;20.83;;;8.15;;
54875;SDS011;40764;48.472;8.166;2023-08-17T04:22:13;15.03;;;7.60;;
54875;SDS011;40764;48.472;8.166;2023-08-17T04:28:14;14.70;;;8.45;;
54875;SDS011;40764;48.472;8.166;2023-08-17T04:34:14;16.53;;;8.73;;
54875;SDS011;40764;48.472;8.166;2023-08-17T04:40:14;18.50;;;8.38;;
54875;SDS011;40764;48.472;8.166;2023-08-17T04:46:15;18.27;;;9.03;;
54875;SDS011;40764;48.472;8.166;2023-08-17T04:52:15;21.20;;;9.57;;
54875;SDS011;40764;48.472;8.166;2023-08-17T04:58:16;18.90;;;7.72;;
54875;SDS011;40764;48.472;8.166;2023-08-17T05:04:16;19.55;;;8.63;;
54875;SDS011;40764;48.472;8.166;2023-08-17T05:10:16;15.55;;;8.05;;
54875;SDS011;40764;48.472;8.166;2023-08-17T05:16:17;17.52;;;8.45;;
54875;SDS011;40764;48.472;8.166;2023-08-17T05:22:17;16.60;;;8.75;;
54875;SDS011;40764;48.472;8.166;2023-08-17T05:28:17;19.85;;;9.32;;
54875;SDS011;40764;48.472;8.166;2023-08-17T05:34:17;17.33;;;8.15;;
54875;SDS011;40764;48.472;8.166;2023-08-17T05:40:18;11.68;;;7.70;;
54875;SDS011;40764;48.472;8.166;2023-08-17T05:46:19;11.70;;;8.23;;
54875;SDS011;40764;48.472;8.166;2023-08-17T05:52:19;13.15;;;8.07;;
54875;SDS011;40764;48.472;8.166;2023-08-17T05:58:19;12.20;;;7.38;;
54875;SDS011;40764;48.472;8.166;2023-08-17T06:04:20;10.93;;;7.87;;
54875;SDS011;40764;48.472;8.166;2023-08-17T06:10:20;14.17;;;8.53;;
54875;SDS011;40764;48.472;8.166;2023-08-17T06:16:25;14.82;;;7.63;;
54875;SDS011;40764;48.472;8.166;2023-08-17T06:22:25;13.73;;;8.00;;
54875;SDS011;40764;48.472;8.166;2023-08-17T06:28:26;16.77;;;7.75;;
54875;SDS011;40764;48.472;8.166;2023-08-17T06:40:27;11.27;;;7.88;;
54875;SDS011;40764;48.472;8.166;2023-08-17T06:46:27;20.75;;;8.13;;
54875;SDS011;40764;48.472;8.166;2023-08-17T06:52:28;17.77;;;7.30;;
54875;SDS011;40764;48.472;8.166;2023-08-17T06:58:28;15.30;;;7.90;;
54875;SDS011;40764;48.472;8.166;2023-08-17T07:04:28;14.20;;;8.52;;
54875;SDS011;40764;48.472;8.166;2023-08-17T07:10:29;12.98;;;8.73;;
54875;SDS011;40764;48.472;8.166;2023-08-17T07:16:29;24.77;;;10.20;;
54875;SDS011;40764;48.472;8.166;2023-08-17T07:22:30;13.88;;;8.02;;
54875;SDS011;40764;48.472;8.166;2023-08-17T07:28:30;9.13;;;6.00;;
54875;SDS011;40764;48.472;8.166;2023-08-17T07:34:30;15.57;;;6.25;;
54875;SDS011;40764;48.472;8.166;2023-08-17T07:40:31;10.13;;;6.03;;
54875;SDS011;40764;48.472;8.166;2023-08-17T07:46:31;8.10;;;5.68;;
54875;SDS011;40764;48.472;8.166;2023-08-17T07:52:32;9.33;;;6.17;;
54875;SDS011;40764;48.472;8.166;2023-08-17T07:58:32;9.73;;;6.90;;
54875;SDS011;40764;48.472;8.166;2023-08-17T08:04:32;11.15;;;6.68;;
54875;SDS011;40764;48.472;8.166;2023-08-17T08:10:33;12.00;;;7.40;;
54875;SDS011;40764;48.472;8.166;2023-08-17T08:16:33;11.50;;;7.23;;
54875;SDS011;40764;48.472;8.166;2023-08-17T08:22:34;9.10;;;6.40;;
54875;SDS011;40764;48.472;8.166;2023-08-17T08:28:34;9.68;;;6.63;;
54875;SDS011;40764;48.472;8.166;2023-08-17T08:34:35;12.10;;;7.13;;
54875;SDS011;40764;48.472;8.166;2023-08-17T08:40:35;8.10;;;6.10;;
54875;SDS011;40764;48.472;8.166;2023-08-17T08:46:37;11.13;;;6.47;;
54875;SDS011;40764;48.472;8.166;2023-08-17T08:52:42;11.10;;;6.97;;
54875;SDS011;40764;48.472;8.166;2023-08-17T08:58:44;10.38;;;5.97;;
54875;SDS011;40764;48.472;8.166;2023-08-17T09:04:47;15.48;;;7.47;;
54875;SDS011;40764;48.472;8.166;2023-08-17T09:10:47;12.30;;;7.50;;
54875;SDS011;40764;48.472;8.166;2023-08-17T09:22:49;19.63;;;7.20;;
54875;SDS011;40764;48.472;8.166;2023-08-17T09:28:50;15.13;;;7.30;;
54875;SDS011;40764;48.472;8.166;2023-08-17T09:34:51;10.60;;;6.90;;
54875;SDS011;40764;48.472;8.166;2023-08-17T09:40:51;10.48;;;6.32;;
54875;SDS011;40764;48.472;8.166;2023-08-17T09:46:55;13.98;;;7.05;;
54875;SDS011;40764;48.472;8.166;2023-08-17T09:52:56;12.02;;;6.53;;
54875;SDS011;40764;48.472;8.166;2023-08-17T09:58:57;9.07;;;6.05;;
54875;SDS011;40764;48.472;8.166;2023-08-17T10:04:57;8.93;;;6.20;;
54875;SDS011;40764;48.472;8.166;2023-08-17T10:10:58;7.07;;;6.00;;
54875;SDS011;40764;48.472;8.166;2023-08-17T10:17:04;8.93;;;5.57;;
54875;SDS011;40764;48.472;8.166;2023-08-17T10:23:17;9.97;;;5.50;;
54875;SDS011;40764;48.472;8.166;2023-08-17T10:29:19;8.90;;;5.80;;
54875;SDS011;40764;48.472;8.166;2023-08-17T10:35:22;10.45;;;5.22;;
54875;SDS011;40764;48.472;8.166;2023-08-17T10:41:23;11.90;;;6.38;;
54875;SDS011;40764;48.472;8.166;2023-08-17T10:47:25;9.70;;;6.28;;
54875;SDS011;40764;48.472;8.166;2023-08-17T10:53:33;14.88;;;6.68;;
54875;SDS011;40764;48.472;8.166;2023-08-17T10:59:35;9.50;;;5.40;;
54875;SDS011;40764;48.472;8.166;2023-08-17T11:05:48;15.95;;;7.32;;
54875;SDS011;40764;48.472;8.166;2023-08-17T11:11:53;12.63;;;7.35;;
54875;SDS011;40764;48.472;8.166;2023-08-17T11:17:56;10.68;;;6.82;;
54875;SDS011;40764;48.472;8.166;2023-08-17T11:29:59;14.13;;;7.28;;
54875;SDS011;40764;48.472;8.166;2023-08-17T11:36:03;10.13;;;6.97;;
54875;SDS011;40764;48.472;8.166;2023-08-17T11:42:06;12.45;;;7.07;;
54875;SDS011;40764;48.472;8.166;2023-08-17T11:54:07;12.43;;;7.37;;
54875;SDS011;40764;48.472;8.166;2023-08-17T12:06:11;10.60;;;6.18;;
54875;SDS011;40764;48.472;8.166;2023-08-17T12:12:17;10.55;;;6.07;;
54875;SDS011;40764;48.472;8.166;2023-08-17T12:18:19;9.10;;;6.30;;
54875;SDS011;40764;48.472;8.166;2023-08-17T12:24:23;11.05;;;5.95;;
54875;SDS011;40764;48.472;8.166;2023-08-17T12:30:25;8.43;;;6.57;;
54875;SDS011;40764;48.472;8.166;2023-08-17T12:36:27;11.35;;;6.95;;
54875;SDS011;40764;48.472;8.166;2023-08-17T12:42:28;7.13;;;6.13;;
54875;SDS011;40764;48.472;8.166;2023-08-17T12:48:28;9.50;;;6.57;;
54875;SDS011;40764;48.472;8.166;2023-08-17T12:54:29;8.40;;;6.27;;
54875;SDS011;40764;48.472;8.166;2023-08-17T13:00:29;11.53;;;7.10;;
54875;SDS011;40764;48.472;8.166;2023-08-17T13:06:29;11.40;;;5.73;;
54875;SDS011;40764;48.472;8.166;2023-08-17T13:12:30;12.98;;;5.82;;
54875;SDS011;40764;48.472;8.166;2023-08-17T13:18:30;8.70;;;5.28;;
54875;SDS011;40764;48.472;8.166;2023-08-17T13:24:30;9.15;;;6.38;;
54875;SDS011;40764;48.472;8.166;2023-08-17T13:30:31;8.77;;;5.70;;
54875;SDS011;40764;48.472;8.166;2023-08-17T13:36:31;8.73;;;6.40;;
54875;SDS011;40764;48.472;8.166;2023-08-17T13:42:31;8.25;;;5.43;;
54875;SDS011;40764;48.472;8.166;2023-08-17T13:48:32;6.93;;;4.37;;
54875;SDS011;40764;48.472;8.166;2023-08-17T13:54:32;9.23;;;4.20;;
54875;SDS011;40764;48.472;8.166;2023-08-17T14:00:33;6.28;;;4.28;;
54875;SDS011;40764;48.472;8.166;2023-08-17T14:06:33;6.47;;;4.05;;
54875;SDS011;40764;48.472;8.166;2023-08-17T14:12:33;10.60;;;4.45;;
54875;SDS011;40764;48.472;8.166;2023-08-17T14:18:34;6.03;;;4.65;;
54875;SDS011;40764;48.472;8.166;2023-08-17T14:24:34;9.48;;;5.70;;
54875;SDS011;40764;48.472;8.166;2023-08-17T14:30:34;12.05;;;5.90;;
54875;SDS011;40764;48.472;8.166;2023-08-17T14:36:35;11.30;;;6.13;;
54875;SDS011;40764;48.472;8.166;2023-08-17T14:42:37;9.43;;;5.82;;
54875;SDS011;40764;48.472;8.166;2023-08-17T14:48:38;8.95;;;6.15;;
54875;SDS011;40764;48.472;8.166;2023-08-17T14:54:38;11.15;;;5.65;;
54875;SDS011;40764;48.472;8.166;2023-08-17T15:00:38;8.68;;;6.35;;
54875;SDS011;40764;48.472;8.166;2023-08-17T15:06:39;8.80;;;6.47;;
54875;SDS011;40764;48.472;8.166;2023-08-17T15:12:39;9.85;;;6.13;;
54875;SDS011;40764;48.472;8.166;2023-08-17T15:18:39;11.82;;;6.65;;
54875;SDS011;40764;48.472;8.166;2023-08-17T15:24:40;13.23;;;5.55;;
54875;SDS011;40764;48.472;8.166;2023-08-17T15:30:40;11.37;;;6.40;;
54875;SDS011;40764;48.472;8.166;2023-08-17T15:36:41;8.40;;;5.63;;
54875;SDS011;40764;48.472;8.166;2023-08-17T15:42:41;7.65;;;4.95;;
54875;SDS011;40764;48.472;8.166;2023-08-17T15:48:41;9.77;;;4.50;;
54875;SDS011;40764;48.472;8.166;2023-08-17T15:54:42;8.63;;;5.15;;
54875;SDS011;40764;48.472;8.166;2023-08-17T16:00:42;6.47;;;4.88;;
54875;SDS011;40764;48.472;8.166;2023-08-17T16:06:42;8.65;;;4.82;;
54875;SDS011;40764;48.472;8.166;2023-08-17T16:12:43;7.43;;;4.70;;
54875;SDS011;40764;48.472;8.166;2023-08-17T16:18:44;10.10;;;4.10;;
54875;SDS011;40764;48.472;8.166;2023-08-17T16:24:44;10.13;;;5.10;;
54875;SDS011;40764;48.472;8.166;2023-08-17T16:30:44;5.30;;;4.15;;
54875;SDS011;40764;48.472;8.166;2023-08-17T16:36:45;9.77;;;4.60;;
54875;SDS011;40764;48.472;8.166;2023-08-17T16:42:45;9.93;;;4.18;;
54875;SDS011;40764;48.472;8.166;2023-08-17T16:48:58;6.18;;;4.10;;
54875;SDS011;40764;48.472;8.166;2023-08-17T16:55:18;7.53;;;4.40;;
54875;SDS011;40764;48.472;8.166;2023-08-17T17:01:52;7.82;;;4.78;;
54875;SDS011;40764;48.472;8.166;2023-08-17T17:07:53;9.98;;;5.25;;
54875;SDS011;40764;48.472;8.166;2023-08-17T17:13:53;9.70;;;5.68;;
54875;SDS011;40764;48.472;8.166;2023-08-17T17:19:54;15.30;;;7.03;;
54875;SDS011;40764;48.472;8.166;2023-08-17T17:25:57;12.80;;;6.80;;
54875;SDS011;40764;48.472;8.166;2023-08-17T17:31:57;10.90;;;6.50;;
54875;SDS011;40764;48.472;8.166;2023-08-17T17:37:58;10.63;;;5.87;;
54875;SDS011;40764;48.472;8.166;2023-08-17T17:44:01;12.38;;;5.78;;
54875;SDS011;40764;48.472;8.166;2023-08-17T17:50:03;15.27;;;7.03;;
54875;SDS011;40764;48.472;8.166;2023-08-17T17:56:09;16.23;;;7.43;;
54875;SDS011;40764;48.472;8.166;2023-08-17T18:02:24;15.00;;;5.78;;
54875;SDS011;40764;48.472;8.166;2023-08-17T18:08:36;10.27;;;5.20;;
54875;SDS011;40764;48.472;8.166;2023-08-17T18:14:37;10.52;;;5.60;;
54875;SDS011;40764;48.472;8.166;2023-08-17T18:27:48;12.43;;;6.97;;
54875;SDS011;40764;48.472;8.166;2023-08-17T18:39:49;13.68;;;6.75;;
54875;SDS011;40764;48.472;8.166;2023-08-17T18:45:50;12.00;;;6.90;;
54875;SDS011;40764;48.472;8.166;2023-08-17T18:57:50;20.60;;;5.63;;
54875;SDS011;40764;48.472;8.166;2023-08-17T19:03:53;13.68;;;6.38;;
54875;SDS011;40764;48.472;8.166;2023-08-17T19:09:53;12.65;;;6.55;;
54875;SDS011;40764;48.472;8.166;2023-08-17T19:15:54;10.50;;;5.97;;
54875;SDS011;40764;48.472;8.166;2023-08-17T19:21:54;10.95;;;5.40;;
54875;SDS011;40764;48.472;8.166;2023-08-17T19:27:54;7.17;;;5.30;;
54875;SDS011;40764;48.472;8.166;2023-08-17T19:33:55;7.60;;;5.33;;
54875;SDS011;40764;48.472;8.166;2023-08-17T19:39:55;16.93;;;6.20;;
54875;SDS011;40764;48.472;8.166;2023-08-17T19:45:56;13.90;;;6.67;;
54875;SDS011;40764;48.472;8.166;2023-08-17T19:51:56;8.77;;;6.23;;
54875;SDS011;40764;48.472;8.166;2023-08-17T19:57:56;15.77;;;7.17;;
54875;SDS011;40764;48.472;8.166;2023-08-17T20:03:57;15.38;;;6.97;;
54875;SDS011;40764;48.472;8.166;2023-08-17T20:09:57;18.50;;;6.20;;
54875;SDS011;40764;48.472;8.166;2023-08-17T20:15:59;13.88;;;7.07;;
54875;SDS011;40764;48.472;8.166;2023-08-17T20:21:59;12.15;;;5.57;;
54875;SDS011;40764;48.472;8.166;2023-08-17T20:28:00;15.90;;;6.73;;
54875;SDS011;40764;48.472;8.166;2023-08-17T20:34:01;15.32;;;6.45;;
54875;SDS011;40764;48.472;8.166;2023-08-17T20:40:01;11.00;;;6.35;;
54875;SDS011;40764;48.472;8.166;2023-08-17T20:46:01;13.95;;;6.57;;
54875;SDS011;40764;48.472;8.166;2023-08-17T20:52:04;16.45;;;7.20;;
54875;SDS011;40764;48.472;8.166;2023-08-17T20:58:05;12.30;;;7.05;;
54875;SDS011;40764;48.472;8.166;2023-08-17T21:04:06;19.70;;;7.80;;
54875;SDS011;40764;48.472;8.166;2023-08-17T21:10:07;11.82;;;6.38;;
54875;SDS011;40764;48.472;8.166;2023-08-17T21:16:08;10.00;;;7.20;;
54875;SDS011;40764;48.472;8.166;2023-08-17T21:22:09;15.02;;;6.63;;
54875;SDS011;40764;48.472;8.166;2023-08-17T21:28:09;12.93;;;6.37;;
54875;SDS011;40764;48.472;8.166;2023-08-17T21:34:10;10.57;;;5.78;;
54875;SDS011;40764;48.472;8.166;2023-08-17T21:40:10;12.33;;;6.27;;
54875;SDS011;40764;48.472;8.166;2023-08-17T21:52:12;19.10;;;6.97;;
54875;SDS011;40764;48.472;8.166;2023-08-17T21:58:12;15.48;;;7.60;;
54875;SDS011;40764;48.472;8.166;2023-08-17T22:04:12;17.73;;;6.20;;
54875;SDS011;40764;48.472;8.166;2023-08-17T22:10:13;13.32;;;6.05;;
54875;SDS011;40764;48.472;8.166;2023-08-17T22:16:13;18.83;;;8.53;;
54875;SDS011;40764;48.472;8.166;2023-08-17T22:22:13;14.25;;;6.20;;
54875;SDS011;40764;48.472;8.166;2023-08-17T22:28:14;11.05;;;6.07;;
54875;SDS011;40764;48.472;8.166;2023-08-17T22:34:14;13.87;;;5.73;;
54875;SDS011;40764;48.472;8.166;2023-08-17T22:40:15;12.57;;;6.63;;
54875;SDS011;40764;48.472;8.166;2023-08-17T22:46:15;15.20;;;7.60;;
54875;SDS011;40764;48.472;8.166;2023-08-17T22:52:15;10.77;;;6.10;;
54875;SDS011;40764;48.472;8.166;2023-08-17T22:58:16;13.32;;;6.60;;
54875;SDS011;40764;48.472;8.166;2023-08-17T23:04:16;18.83;;;6.97;;
54875;SDS011;40764;48.472;8.166;2023-08-17T23:10:16;11.98;;;6.53;;
54875;SDS011;40764;48.472;8.166;2023-08-17T23:16:17;14.70;;;5.88;;
54875;SDS011;40764;48.472;8.166;2023-08-17T23:22:17;11.35;;;5.47;;
54875;SDS011;40764;48.472;8.166;2023-08-17T23:28:17;9.48;;;5.47;;
54875;SDS011;40764;48.472;8.166;2023-08-17T23:34:18;11.00;;;5.40;;
54875;SDS011;40764;48.472;8.166;2023-08-17T23:40:18;12.18;;;5.68;;
54875;SDS011;40764;48.472;8.166;2023-08-17T23:46:18;14.47;;;6.50;;
54875;SDS011;40764;48.472;8.166;2023-08-17T23:52:19;17.57;;;5.37;;
54875;SDS011;40764;48.472;8.166;2023-08-17T23:58:19;13.60;;;5.47;;
